• Join FlightAware (Why Join?)
  • Login
  • US Flag 
02:52AM EST


 

Airport Tracker/Info


-or-


 

Live Flight TrackerFlight Track Log ✈ UCA3596 ✈ 04-Oct-2013 ✈ KIAD - KBGM

Flight Track Log - Related Links

Times and Time Zones

All times are in EDT time to prevent confusion due to time zone crossing. See the UCA3596 flight status page for this flight to view local times or setup timezone preferences in your user account.

Time Position Orientation Groundspeed Altitude Reporting Facility
EDT Latitude Longitude Course Direction KTS MPH feet Rate Location/Type
01:16PM 39.2749 -77.3180 19° North  Level Estimated
01:17PM 39.3295 -77.2942 19° North  Level Estimated
01:18PM 39.3841 -77.2704 19° North  Level Estimated
01:19PM 39.4386 -77.2465 19° North  Level Estimated
01:20PM 39.4932 -77.2226 19° North  Level Estimated
01:21PM 39.5477 -77.1987 19° North  Level Estimated
01:22PM 39.6023 -77.1747 19° North  Level Estimated
01:23PM 39.6568 -77.1507 19° North  Level Estimated
01:24PM 39.7113 -77.1266 19° North  Level Estimated
01:25PM 39.7659 -77.1025 19° North  Level Estimated
01:26PM 39.8204 -77.0784 19° North  Level Estimated
01:27PM 39.8749 -77.0542 19° North  Level Estimated
01:28PM 39.9294 -77.0300 19° North  Level Estimated
01:29PM 39.9839 -77.0058 19° North  Level Estimated
01:30PM 40.0384 -76.9815 19° North  Level Estimated
01:31PM 40.0929 -76.9572 19° North  Level Estimated
01:32PM 40.1474 -76.9328 19° North  Level Estimated
01:33PM 40.2019 -76.9084 19° North  Level Estimated
01:34PM 40.2564 -76.8840 19° North  Level Estimated
01:35PM 40.3109 -76.8595 19° North  Level Estimated
01:36PM 40.3653 -76.8350 19° North  Level Estimated
01:37PM 40.4198 -76.8104 19° North  Level Estimated
01:38PM 40.4743 -76.7858 19° North  Level Estimated
01:39PM 40.5287 -76.7612 19° North  Level Estimated
01:40PM 40.5832 -76.7365 19° North  Level Estimated
01:41PM 40.6376 -76.7118 19° North  Level Estimated
01:42PM 40.6921 -76.6870 19° North  Level Estimated
01:43PM 40.7465 -76.6622 19° North  Level Estimated
01:44PM 40.8009 -76.6374 19° North  Level Estimated
01:45PM 40.8554 -76.6125 19° North  Level Estimated
01:46PM 40.9098 -76.5876 19° North  Level Estimated
01:47PM 40.9642 -76.5626 19° North  Level Estimated
01:48PM 41.0186 -76.5376 19° North  Level Estimated
01:49PM 41.0730 -76.5126 19° North  Level Estimated
01:50PM 41.1274 -76.4875 19° North  Level Estimated
01:51PM 41.1818 -76.4624 19° North  Level Estimated
01:52PM 41.2362 -76.4372 19° North  Level Estimated
01:53PM 41.2906 -76.4120 19° North  Level Estimated
01:54PM 41.3450 -76.3867 19° North  Level Estimated
01:55PM 41.3993 -76.3614 19° North  Level Estimated
01:56PM 41.4537 -76.3361 19° North  Level Estimated
01:57PM 41.5081 -76.3107 19° North  Level Estimated
01:58PM 41.5624 -76.2853 19° North  Level Estimated
01:59PM 41.6168 -76.2598 19° North  Level Estimated
02:00PM 41.6711 -76.2343 19° North  Level Estimated
02:01PM 41.7254 -76.2088 19° North  Level Estimated
02:02PM 41.7798 -76.1832 19° North  Level Estimated
02:03PM 41.8341 -76.1575 19° North  Level Estimated
02:04PM 41.8884 -76.1319 19° North  Level Estimated
02:05PM 41.9427 -76.1061 19° North  Level Estimated
02:06PM 41.9971 -76.0804 19° North  Level Estimated
02:07PM 42.0514 -76.0545 19° North  Level Estimated
02:08PM 42.1057 -76.0287 19° North  Level Estimated
02:09PM 42.1600 -76.0028 19° North  Level Estimated
02:10PM 42.2084 -75.9796 19° North  Level Estimated
02:11PM 42.2084 -75.9796 35° Northeast  Level Estimated
02:12PM 42.2084 -75.9796 35° Northeast  Level Estimated
02:13PM 42.2084 -75.9796 35° Northeast  Level Estimated
02:14PM 42.2084 -75.9796 35° Northeast  Level Estimated
02:15PM 42.2084 -75.9796 35° Northeast  Level Estimated
02:16PM 42.2084 -75.9796 35° Northeast  Level Estimated
02:17PM 42.2084 -75.9796 35° Northeast  Level Estimated
02:18PM 42.2084 -75.9796 35° Northeast  Level Estimated
02:19PM 42.2084 -75.9796 35° Northeast  Level Estimated